Cadillac, Michigan
Current Conditions -  °F | °C
As of 10:55 AM on Friday 31 Oct 2014 (Local Time) from KCAD Reporting Station
Light Snow Light Snow  
Wind Chill: -6°   Ceiling: 900
Heat Index:   Visibility: 1mi
Dew Point: -2°   Wind: 14mph
Humidity: 93%   Direction: 360°N
Pressure: 30.02"   Gusts: 25mph
Location:  44.26°N, 85.4°W
Report Text: KCAD 311455Z AUTO 36012G22KT 1SM -SN OVC009 00/M01 A3002 RMK AO2 T10051015
Loading
Personal Weather Stations






























Interactive Weather Map New forecast layout! Learn more

10-Day Weather Forecast

Advertisements
Track Severe Weather on mobile